sensor_id;sensor_type;location;lat;lon;timestamp;P1;durP1;ratioP1;P2;durP2;ratioP2
60344;SDS011;46188;52.324;8.032;2023-04-01T00:01:20;10.05;;;6.00;;
60344;SDS011;46188;52.324;8.032;2023-04-01T00:03:46;8.60;;;6.70;;
60344;SDS011;46188;52.324;8.032;2023-04-01T00:06:15;10.82;;;7.50;;
60344;SDS011;46188;52.324;8.032;2023-04-01T00:08:41;11.02;;;7.20;;
60344;SDS011;46188;52.324;8.032;2023-04-01T00:11:07;9.18;;;7.55;;
60344;SDS011;46188;52.324;8.032;2023-04-01T00:13:32;12.05;;;7.35;;
60344;SDS011;46188;52.324;8.032;2023-04-01T00:15:57;15.07;;;7.85;;
60344;SDS011;46188;52.324;8.032;2023-04-01T00:18:25;12.18;;;8.25;;
60344;SDS011;46188;52.324;8.032;2023-04-01T00:20:51;11.30;;;7.80;;
60344;SDS011;46188;52.324;8.032;2023-04-01T00:23:17;11.52;;;7.95;;
60344;SDS011;46188;52.324;8.032;2023-04-01T00:25:44;9.07;;;6.80;;
60344;SDS011;46188;52.324;8.032;2023-04-01T00:28:12;9.32;;;5.97;;
60344;SDS011;46188;52.324;8.032;2023-04-01T00:30:37;7.10;;;6.13;;
60344;SDS011;46188;52.324;8.032;2023-04-01T00:33:03;9.70;;;5.97;;
60344;SDS011;46188;52.324;8.032;2023-04-01T00:35:28;6.60;;;5.53;;
60344;SDS011;46188;52.324;8.032;2023-04-01T00:37:54;7.78;;;5.35;;
60344;SDS011;46188;52.324;8.032;2023-04-01T00:40:25;7.55;;;4.82;;
60344;SDS011;46188;52.324;8.032;2023-04-01T00:43:00;9.02;;;5.85;;
60344;SDS011;46188;52.324;8.032;2023-04-01T00:45:33;5.72;;;5.03;;
60344;SDS011;46188;52.324;8.032;2023-04-01T00:48:02;8.38;;;5.70;;
60344;SDS011;46188;52.324;8.032;2023-04-01T00:50:31;9.15;;;5.20;;
60344;SDS011;46188;52.324;8.032;2023-04-01T00:53:00;6.28;;;5.22;;
60344;SDS011;46188;52.324;8.032;2023-04-01T00:55:27;7.60;;;5.22;;
60344;SDS011;46188;52.324;8.032;2023-04-01T00:57:56;6.00;;;5.40;;
60344;SDS011;46188;52.324;8.032;2023-04-01T01:00:23;7.18;;;5.60;;
60344;SDS011;46188;52.324;8.032;2023-04-01T01:02:48;6.72;;;5.20;;
60344;SDS011;46188;52.324;8.032;2023-04-01T01:05:15;9.55;;;4.90;;
60344;SDS011;46188;52.324;8.032;2023-04-01T01:07:47;6.55;;;5.00;;
60344;SDS011;46188;52.324;8.032;2023-04-01T01:10:39;7.43;;;4.70;;
60344;SDS011;46188;52.324;8.032;2023-04-01T01:15:45;8.43;;;5.90;;
60344;SDS011;46188;52.324;8.032;2023-04-01T01:18:35;9.02;;;5.50;;
60344;SDS011;46188;52.324;8.032;2023-04-01T01:21:23;8.43;;;5.47;;
60344;SDS011;46188;52.324;8.032;2023-04-01T01:24:13;9.25;;;5.60;;
60344;SDS011;46188;52.324;8.032;2023-04-01T01:38:07;7.90;;;5.38;;
60344;SDS011;46188;52.324;8.032;2023-04-01T01:40:36;7.32;;;5.60;;
60344;SDS011;46188;52.324;8.032;2023-04-01T01:43:05;7.75;;;5.60;;
60344;SDS011;46188;52.324;8.032;2023-04-01T01:45:34;6.10;;;4.93;;
60344;SDS011;46188;52.324;8.032;2023-04-01T01:48:04;6.30;;;4.88;;
60344;SDS011;46188;52.324;8.032;2023-04-01T01:50:31;7.20;;;5.22;;
60344;SDS011;46188;52.324;8.032;2023-04-01T01:53:03;9.85;;;5.28;;
60344;SDS011;46188;52.324;8.032;2023-04-01T01:55:34;9.98;;;5.13;;
60344;SDS011;46188;52.324;8.032;2023-04-01T01:58:16;7.35;;;5.10;;
60344;SDS011;46188;52.324;8.032;2023-04-01T02:00:48;4.90;;;4.28;;
60344;SDS011;46188;52.324;8.032;2023-04-01T02:03:18;7.55;;;4.60;;
60344;SDS011;46188;52.324;8.032;2023-04-01T02:05:48;7.30;;;5.05;;
60344;SDS011;46188;52.324;8.032;2023-04-01T02:08:18;5.88;;;4.70;;
60344;SDS011;46188;52.324;8.032;2023-04-01T02:10:51;8.88;;;5.15;;
60344;SDS011;46188;52.324;8.032;2023-04-01T02:13:26;5.00;;;3.83;;
60344;SDS011;46188;52.324;8.032;2023-04-01T02:15:56;6.78;;;4.40;;
60344;SDS011;46188;52.324;8.032;2023-04-01T02:18:27;7.18;;;3.65;;
60344;SDS011;46188;52.324;8.032;2023-04-01T02:20:54;5.65;;;3.72;;
60344;SDS011;46188;52.324;8.032;2023-04-01T02:23:21;5.25;;;3.30;;
60344;SDS011;46188;52.324;8.032;2023-04-01T02:25:46;4.35;;;3.55;;
60344;SDS011;46188;52.324;8.032;2023-04-01T02:28:12;4.10;;;3.53;;
60344;SDS011;46188;52.324;8.032;2023-04-01T02:30:39;4.30;;;3.30;;
60344;SDS011;46188;52.324;8.032;2023-04-01T02:33:07;5.32;;;2.85;;
60344;SDS011;46188;52.324;8.032;2023-04-01T02:35:34;4.47;;;3.60;;
60344;SDS011;46188;52.324;8.032;2023-04-01T02:38:02;5.05;;;3.72;;
60344;SDS011;46188;52.324;8.032;2023-04-01T02:40:28;4.32;;;3.20;;
60344;SDS011;46188;52.324;8.032;2023-04-01T02:42:53;3.72;;;2.92;;
60344;SDS011;46188;52.324;8.032;2023-04-01T02:45:18;4.43;;;2.72;;
60344;SDS011;46188;52.324;8.032;2023-04-01T02:47:44;6.55;;;3.38;;
60344;SDS011;46188;52.324;8.032;2023-04-01T02:50:09;3.75;;;2.78;;
60344;SDS011;46188;52.324;8.032;2023-04-01T02:52:35;2.97;;;2.67;;
60344;SDS011;46188;52.324;8.032;2023-04-01T02:55:00;4.22;;;2.75;;
60344;SDS011;46188;52.324;8.032;2023-04-01T02:57:26;4.60;;;2.88;;
60344;SDS011;46188;52.324;8.032;2023-04-01T02:59:51;3.67;;;2.88;;
60344;SDS011;46188;52.324;8.032;2023-04-01T03:02:17;3.40;;;2.67;;
60344;SDS011;46188;52.324;8.032;2023-04-01T03:04:43;3.65;;;3.00;;
60344;SDS011;46188;52.324;8.032;2023-04-01T03:07:08;7.70;;;2.83;;
60344;SDS011;46188;52.324;8.032;2023-04-01T03:09:35;3.67;;;2.80;;
60344;SDS011;46188;52.324;8.032;2023-04-01T03:12:02;4.53;;;2.97;;
60344;SDS011;46188;52.324;8.032;2023-04-01T03:14:27;6.93;;;3.10;;
60344;SDS011;46188;52.324;8.032;2023-04-01T03:16:52;4.38;;;3.17;;
60344;SDS011;46188;52.324;8.032;2023-04-01T03:19:18;3.75;;;3.05;;
60344;SDS011;46188;52.324;8.032;2023-04-01T03:21:43;4.25;;;3.28;;
60344;SDS011;46188;52.324;8.032;2023-04-01T03:24:08;4.28;;;3.30;;
60344;SDS011;46188;52.324;8.032;2023-04-01T03:26:34;3.70;;;3.08;;
60344;SDS011;46188;52.324;8.032;2023-04-01T03:28:59;4.43;;;3.38;;
60344;SDS011;46188;52.324;8.032;2023-04-01T03:31:24;5.13;;;3.42;;
60344;SDS011;46188;52.324;8.032;2023-04-01T03:33:50;3.47;;;3.17;;
60344;SDS011;46188;52.324;8.032;2023-04-01T03:36:15;4.13;;;2.90;;
60344;SDS011;46188;52.324;8.032;2023-04-01T03:38:41;4.70;;;3.65;;
60344;SDS011;46188;52.324;8.032;2023-04-01T03:41:07;6.38;;;4.88;;
60344;SDS011;46188;52.324;8.032;2023-04-01T03:43:32;3.88;;;3.13;;
60344;SDS011;46188;52.324;8.032;2023-04-01T03:45:58;4.40;;;2.88;;
60344;SDS011;46188;52.324;8.032;2023-04-01T03:48:23;3.67;;;3.15;;
60344;SDS011;46188;52.324;8.032;2023-04-01T03:50:50;4.20;;;2.80;;
60344;SDS011;46188;52.324;8.032;2023-04-01T03:53:15;4.47;;;3.22;;
60344;SDS011;46188;52.324;8.032;2023-04-01T03:55:41;3.95;;;3.30;;
60344;SDS011;46188;52.324;8.032;2023-04-01T03:58:06;3.72;;;3.00;;
60344;SDS011;46188;52.324;8.032;2023-04-01T04:00:32;4.25;;;2.80;;
60344;SDS011;46188;52.324;8.032;2023-04-01T04:02:58;4.28;;;2.83;;
60344;SDS011;46188;52.324;8.032;2023-04-01T04:05:24;3.28;;;2.50;;
60344;SDS011;46188;52.324;8.032;2023-04-01T04:07:50;3.53;;;2.25;;
60344;SDS011;46188;52.324;8.032;2023-04-01T04:10:17;4.00;;;2.50;;
60344;SDS011;46188;52.324;8.032;2023-04-01T04:12:43;4.15;;;2.53;;
60344;SDS011;46188;52.324;8.032;2023-04-01T04:15:08;4.47;;;2.42;;
60344;SDS011;46188;52.324;8.032;2023-04-01T04:17:34;2.92;;;2.38;;
60344;SDS011;46188;52.324;8.032;2023-04-01T04:20:00;3.33;;;2.33;;
60344;SDS011;46188;52.324;8.032;2023-04-01T04:22:25;4.40;;;2.50;;
60344;SDS011;46188;52.324;8.032;2023-04-01T04:24:50;3.30;;;2.63;;
60344;SDS011;46188;52.324;8.032;2023-04-01T04:27:16;6.85;;;2.65;;
60344;SDS011;46188;52.324;8.032;2023-04-01T04:29:41;3.58;;;2.53;;
60344;SDS011;46188;52.324;8.032;2023-04-01T04:32:07;3.67;;;2.35;;
60344;SDS011;46188;52.324;8.032;2023-04-01T04:34:32;3.38;;;2.60;;
60344;SDS011;46188;52.324;8.032;2023-04-01T04:36:57;3.88;;;2.90;;
60344;SDS011;46188;52.324;8.032;2023-04-01T04:39:23;2.90;;;2.08;;
60344;SDS011;46188;52.324;8.032;2023-04-01T04:41:48;3.63;;;2.00;;
60344;SDS011;46188;52.324;8.032;2023-04-01T04:44:13;2.97;;;2.03;;
60344;SDS011;46188;52.324;8.032;2023-04-01T04:46:39;3.17;;;2.30;;
60344;SDS011;46188;52.324;8.032;2023-04-01T04:49:04;4.82;;;2.50;;
60344;SDS011;46188;52.324;8.032;2023-04-01T04:51:31;4.18;;;2.40;;
60344;SDS011;46188;52.324;8.032;2023-04-01T04:53:59;2.90;;;2.20;;
60344;SDS011;46188;52.324;8.032;2023-04-01T04:56:25;3.03;;;2.40;;
60344;SDS011;46188;52.324;8.032;2023-04-01T04:58:51;3.60;;;2.45;;
60344;SDS011;46188;52.324;8.032;2023-04-01T05:01:17;3.65;;;2.25;;
60344;SDS011;46188;52.324;8.032;2023-04-01T05:03:43;3.10;;;2.00;;
60344;SDS011;46188;52.324;8.032;2023-04-01T05:06:09;2.90;;;2.15;;
60344;SDS011;46188;52.324;8.032;2023-04-01T05:08:36;3.28;;;2.15;;
60344;SDS011;46188;52.324;8.032;2023-04-01T05:11:02;3.75;;;2.03;;
60344;SDS011;46188;52.324;8.032;2023-04-01T05:13:28;2.67;;;1.92;;
60344;SDS011;46188;52.324;8.032;2023-04-01T05:15:53;3.20;;;1.90;;
60344;SDS011;46188;52.324;8.032;2023-04-01T05:18:19;4.20;;;2.00;;
60344;SDS011;46188;52.324;8.032;2023-04-01T05:20:47;2.78;;;1.95;;
60344;SDS011;46188;52.324;8.032;2023-04-01T05:23:17;4.15;;;1.98;;
60344;SDS011;46188;52.324;8.032;2023-04-01T05:25:43;3.03;;;1.92;;
60344;SDS011;46188;52.324;8.032;2023-04-01T05:28:10;2.42;;;2.00;;
60344;SDS011;46188;52.324;8.032;2023-04-01T05:30:35;2.30;;;1.88;;
60344;SDS011;46188;52.324;8.032;2023-04-01T05:33:01;3.25;;;2.15;;
60344;SDS011;46188;52.324;8.032;2023-04-01T05:35:26;3.30;;;2.10;;
60344;SDS011;46188;52.324;8.032;2023-04-01T05:37:51;3.00;;;2.13;;
60344;SDS011;46188;52.324;8.032;2023-04-01T05:40:17;2.47;;;1.70;;
60344;SDS011;46188;52.324;8.032;2023-04-01T05:42:42;3.45;;;1.88;;
60344;SDS011;46188;52.324;8.032;2023-04-01T05:45:08;2.08;;;1.80;;
60344;SDS011;46188;52.324;8.032;2023-04-01T05:47:34;2.85;;;1.98;;
60344;SDS011;46188;52.324;8.032;2023-04-01T05:49:59;4.68;;;2.20;;
60344;SDS011;46188;52.324;8.032;2023-04-01T05:52:24;3.72;;;1.80;;
60344;SDS011;46188;52.324;8.032;2023-04-01T05:54:50;3.38;;;2.10;;
60344;SDS011;46188;52.324;8.032;2023-04-01T05:57:16;2.47;;;1.83;;
60344;SDS011;46188;52.324;8.032;2023-04-01T05:59:41;2.58;;;1.90;;
60344;SDS011;46188;52.324;8.032;2023-04-01T06:02:07;4.57;;;2.00;;
60344;SDS011;46188;52.324;8.032;2023-04-01T06:04:34;3.63;;;2.20;;
60344;SDS011;46188;52.324;8.032;2023-04-01T06:07:16;3.20;;;2.30;;
60344;SDS011;46188;52.324;8.032;2023-04-01T06:09:43;3.20;;;2.20;;
60344;SDS011;46188;52.324;8.032;2023-04-01T06:12:16;3.20;;;2.53;;
60344;SDS011;46188;52.324;8.032;2023-04-01T06:23:19;5.80;;;3.60;;
60344;SDS011;46188;52.324;8.032;2023-04-01T06:26:03;4.82;;;3.47;;
60344;SDS011;46188;52.324;8.032;2023-04-01T06:34:10;5.88;;;4.45;;
60344;SDS011;46188;52.324;8.032;2023-04-01T06:44:47;5.60;;;4.90;;
60344;SDS011;46188;52.324;8.032;2023-04-01T06:47:20;7.18;;;5.53;;
60344;SDS011;46188;52.324;8.032;2023-04-01T06:50:15;5.82;;;4.93;;
60344;SDS011;46188;52.324;8.032;2023-04-01T06:58:02;7.10;;;5.63;;
60344;SDS011;46188;52.324;8.032;2023-04-01T07:00:35;6.70;;;5.65;;
60344;SDS011;46188;52.324;8.032;2023-04-01T07:03:10;6.22;;;5.38;;
60344;SDS011;46188;52.324;8.032;2023-04-01T07:05:43;8.13;;;6.63;;
60344;SDS011;46188;52.324;8.032;2023-04-01T07:08:10;8.35;;;5.72;;
60344;SDS011;46188;52.324;8.032;2023-04-01T07:10:47;6.50;;;5.28;;
60344;SDS011;46188;52.324;8.032;2023-04-01T07:13:22;7.22;;;5.43;;
60344;SDS011;46188;52.324;8.032;2023-04-01T07:15:51;7.38;;;4.65;;
60344;SDS011;46188;52.324;8.032;2023-04-01T07:18:25;7.43;;;5.43;;
60344;SDS011;46188;52.324;8.032;2023-04-01T07:20:57;8.02;;;4.80;;
60344;SDS011;46188;52.324;8.032;2023-04-01T07:23:26;5.25;;;4.35;;
60344;SDS011;46188;52.324;8.032;2023-04-01T07:26:06;5.97;;;3.95;;
60344;SDS011;46188;52.324;8.032;2023-04-01T07:28:40;5.53;;;4.35;;
60344;SDS011;46188;52.324;8.032;2023-04-01T07:34:20;4.60;;;3.70;;
60344;SDS011;46188;52.324;8.032;2023-04-01T07:36:59;4.65;;;3.65;;
60344;SDS011;46188;52.324;8.032;2023-04-01T07:45:40;4.70;;;3.90;;
60344;SDS011;46188;52.324;8.032;2023-04-01T07:48:18;4.22;;;3.53;;
60344;SDS011;46188;52.324;8.032;2023-04-01T07:51:03;4.85;;;3.85;;
60344;SDS011;46188;52.324;8.032;2023-04-01T07:56:10;4.28;;;3.30;;
60344;SDS011;46188;52.324;8.032;2023-04-01T08:04:18;4.32;;;3.60;;
60344;SDS011;46188;52.324;8.032;2023-04-01T08:13:04;4.03;;;3.25;;
60344;SDS011;46188;52.324;8.032;2023-04-01T08:15:48;4.05;;;3.20;;
60344;SDS011;46188;52.324;8.032;2023-04-01T08:21:31;3.85;;;3.17;;
60344;SDS011;46188;52.324;8.032;2023-04-01T08:26:42;3.90;;;3.10;;
60344;SDS011;46188;52.324;8.032;2023-04-01T08:29:18;3.67;;;3.08;;
60344;SDS011;46188;52.324;8.032;2023-04-01T08:31:58;4.47;;;3.42;;
60344;SDS011;46188;52.324;8.032;2023-04-01T08:34:32;4.55;;;3.40;;
60344;SDS011;46188;52.324;8.032;2023-04-01T08:37:03;4.53;;;3.78;;
60344;SDS011;46188;52.324;8.032;2023-04-01T08:39:54;3.65;;;3.20;;
60344;SDS011;46188;52.324;8.032;2023-04-01T08:42:27;5.38;;;3.70;;
60344;SDS011;46188;52.324;8.032;2023-04-01T08:45:25;4.28;;;3.60;;
60344;SDS011;46188;52.324;8.032;2023-04-01T09:05:22;3.30;;;3.00;;
60344;SDS011;46188;52.324;8.032;2023-04-01T09:08:00;3.40;;;3.10;;
60344;SDS011;46188;52.324;8.032;2023-04-01T09:22:07;4.35;;;2.40;;
60344;SDS011;46188;52.324;8.032;2023-04-01T09:28:12;2.38;;;1.98;;
60344;SDS011;46188;52.324;8.032;2023-04-01T09:33:49;2.55;;;2.15;;
60344;SDS011;46188;52.324;8.032;2023-04-01T09:44:36;3.00;;;2.53;;
60344;SDS011;46188;52.324;8.032;2023-04-01T09:47:14;3.17;;;2.58;;
60344;SDS011;46188;52.324;8.032;2023-04-01T10:06:45;3.65;;;3.05;;
60344;SDS011;46188;52.324;8.032;2023-04-01T10:09:33;3.95;;;3.35;;
60344;SDS011;46188;52.324;8.032;2023-04-01T10:12:29;7.25;;;3.22;;
60344;SDS011;46188;52.324;8.032;2023-04-01T10:17:56;4.03;;;3.50;;
60344;SDS011;46188;52.324;8.032;2023-04-01T10:20:31;4.15;;;3.50;;
60344;SDS011;46188;52.324;8.032;2023-04-01T10:39:56;5.57;;;4.05;;
60344;SDS011;46188;52.324;8.032;2023-04-01T10:43:04;4.65;;;4.25;;
60344;SDS011;46188;52.324;8.032;2023-04-01T10:48:34;5.07;;;3.78;;
60344;SDS011;46188;52.324;8.032;2023-04-01T10:54:59;3.75;;;3.15;;
60344;SDS011;46188;52.324;8.032;2023-04-01T10:57:52;3.63;;;2.90;;
60344;SDS011;46188;52.324;8.032;2023-04-01T11:00:46;3.50;;;2.92;;
60344;SDS011;46188;52.324;8.032;2023-04-01T11:14:09;5.40;;;4.65;;
60344;SDS011;46188;52.324;8.032;2023-04-01T11:20:37;5.10;;;3.95;;
60344;SDS011;46188;52.324;8.032;2023-04-01T11:29:03;4.00;;;3.17;;
60344;SDS011;46188;52.324;8.032;2023-04-01T11:32:05;3.20;;;2.42;;
60344;SDS011;46188;52.324;8.032;2023-04-01T11:48:13;3.17;;;2.75;;
60344;SDS011;46188;52.324;8.032;2023-04-01T11:59:51;4.80;;;3.97;;
60344;SDS011;46188;52.324;8.032;2023-04-01T12:05:43;4.38;;;3.30;;
60344;SDS011;46188;52.324;8.032;2023-04-01T12:11:19;4.00;;;3.55;;
60344;SDS011;46188;52.324;8.032;2023-04-01T12:17:09;4.55;;;3.70;;
60344;SDS011;46188;52.324;8.032;2023-04-01T12:25:45;4.65;;;4.00;;
60344;SDS011;46188;52.324;8.032;2023-04-01T12:36:52;5.30;;;4.47;;
60344;SDS011;46188;52.324;8.032;2023-04-01T12:42:18;5.72;;;4.15;;
60344;SDS011;46188;52.324;8.032;2023-04-01T12:45:23;5.13;;;4.10;;
60344;SDS011;46188;52.324;8.032;2023-04-01T12:55:41;5.70;;;3.70;;
60344;SDS011;46188;52.324;8.032;2023-04-01T13:01:06;6.25;;;3.95;;
60344;SDS011;46188;52.324;8.032;2023-04-01T13:09:45;6.25;;;3.80;;
60344;SDS011;46188;52.324;8.032;2023-04-01T13:12:36;3.42;;;2.83;;
60344;SDS011;46188;52.324;8.032;2023-04-01T13:15:21;4.07;;;3.20;;
60344;SDS011;46188;52.324;8.032;2023-04-01T13:18:07;6.80;;;3.13;;
60344;SDS011;46188;52.324;8.032;2023-04-01T13:20:54;4.38;;;2.72;;
60344;SDS011;46188;52.324;8.032;2023-04-01T13:23:37;4.15;;;2.90;;
60344;SDS011;46188;52.324;8.032;2023-04-01T13:26:24;3.38;;;2.58;;
60344;SDS011;46188;52.324;8.032;2023-04-01T13:31:44;6.20;;;3.03;;
60344;SDS011;46188;52.324;8.032;2023-04-01T13:42:49;3.78;;;2.63;;
60344;SDS011;46188;52.324;8.032;2023-04-01T13:45:22;4.20;;;2.90;;
60344;SDS011;46188;52.324;8.032;2023-04-01T13:53:44;4.75;;;3.25;;
60344;SDS011;46188;52.324;8.032;2023-04-01T13:56:41;7.60;;;4.40;;
60344;SDS011;46188;52.324;8.032;2023-04-01T13:59:30;5.50;;;3.72;;
60344;SDS011;46188;52.324;8.032;2023-04-01T14:05:13;4.05;;;2.63;;
60344;SDS011;46188;52.324;8.032;2023-04-01T14:07:50;15.85;;;4.82;;
60344;SDS011;46188;52.324;8.032;2023-04-01T14:13:39;6.25;;;3.80;;
60344;SDS011;46188;52.324;8.032;2023-04-01T14:19:03;4.10;;;3.22;;
60344;SDS011;46188;52.324;8.032;2023-04-01T14:22:23;4.03;;;2.67;;
60344;SDS011;46188;52.324;8.032;2023-04-01T14:48:07;2.03;;;1.60;;
60344;SDS011;46188;52.324;8.032;2023-04-01T14:50:46;1.95;;;1.60;;
60344;SDS011;46188;52.324;8.032;2023-04-01T14:55:49;2.20;;;1.95;;
60344;SDS011;46188;52.324;8.032;2023-04-01T14:58:17;2.90;;;2.13;;
60344;SDS011;46188;52.324;8.032;2023-04-01T15:00:47;2.65;;;2.25;;
60344;SDS011;46188;52.324;8.032;2023-04-01T15:09:10;2.30;;;1.75;;
60344;SDS011;46188;52.324;8.032;2023-04-01T15:25:50;2.47;;;1.50;;
60344;SDS011;46188;52.324;8.032;2023-04-01T15:28:22;7.90;;;3.95;;
60344;SDS011;46188;52.324;8.032;2023-04-01T15:31:51;5.82;;;3.35;;
60344;SDS011;46188;52.324;8.032;2023-04-01T15:34:24;2.65;;;1.67;;
60344;SDS011;46188;52.324;8.032;2023-04-01T15:37:14;2.55;;;1.98;;
60344;SDS011;46188;52.324;8.032;2023-04-01T15:42:43;1.60;;;1.30;;
60344;SDS011;46188;52.324;8.032;2023-04-01T15:45:31;1.60;;;1.17;;
60344;SDS011;46188;52.324;8.032;2023-04-01T15:48:13;2.40;;;1.10;;
60344;SDS011;46188;52.324;8.032;2023-04-01T15:53:28;2.15;;;1.20;;
60344;SDS011;46188;52.324;8.032;2023-04-01T16:01:58;1.70;;;1.30;;
60344;SDS011;46188;52.324;8.032;2023-04-01T16:07:28;2.10;;;1.30;;
60344;SDS011;46188;52.324;8.032;2023-04-01T16:10:17;2.42;;;1.45;;
60344;SDS011;46188;52.324;8.032;2023-04-01T16:18:32;2.10;;;1.67;;
60344;SDS011;46188;52.324;8.032;2023-04-01T16:23:49;1.80;;;1.30;;
60344;SDS011;46188;52.324;8.032;2023-04-01T16:26:34;2.05;;;1.40;;
60344;SDS011;46188;52.324;8.032;2023-04-01T16:29:11;1.80;;;1.20;;
60344;SDS011;46188;52.324;8.032;2023-04-01T16:31:49;2.28;;;1.42;;
60344;SDS011;46188;52.324;8.032;2023-04-01T16:34:18;1.48;;;0.98;;
60344;SDS011;46188;52.324;8.032;2023-04-01T16:39:27;2.42;;;1.70;;
60344;SDS011;46188;52.324;8.032;2023-04-01T16:42:13;9.55;;;5.97;;
60344;SDS011;46188;52.324;8.032;2023-04-01T16:45:00;6.55;;;4.13;;
60344;SDS011;46188;52.324;8.032;2023-04-01T16:47:46;6.70;;;3.53;;
60344;SDS011;46188;52.324;8.032;2023-04-01T16:55:55;4.10;;;2.50;;
60344;SDS011;46188;52.324;8.032;2023-04-01T17:01:21;2.60;;;1.88;;
60344;SDS011;46188;52.324;8.032;2023-04-01T17:04:16;2.58;;;1.45;;
60344;SDS011;46188;52.324;8.032;2023-04-01T17:30:30;3.13;;;1.75;;
60344;SDS011;46188;52.324;8.032;2023-04-01T17:33:10;1.98;;;1.58;;
60344;SDS011;46188;52.324;8.032;2023-04-01T17:38:50;4.75;;;3.05;;
60344;SDS011;46188;52.324;8.032;2023-04-01T17:49:55;3.67;;;2.63;;
60344;SDS011;46188;52.324;8.032;2023-04-01T17:52:35;3.00;;;2.50;;
60344;SDS011;46188;52.324;8.032;2023-04-01T17:55:21;2.30;;;1.95;;
60344;SDS011;46188;52.324;8.032;2023-04-01T18:00:33;3.60;;;1.70;;
60344;SDS011;46188;52.324;8.032;2023-04-01T18:17:06;2.42;;;2.05;;
60344;SDS011;46188;52.324;8.032;2023-04-01T18:20:11;2.47;;;2.28;;
60344;SDS011;46188;52.324;8.032;2023-04-01T18:25:41;2.08;;;1.80;;
60344;SDS011;46188;52.324;8.032;2023-04-01T18:36:35;2.35;;;2.00;;
60344;SDS011;46188;52.324;8.032;2023-04-01T18:39:16;2.58;;;2.00;;
60344;SDS011;46188;52.324;8.032;2023-04-01T18:50:17;4.00;;;2.40;;
60344;SDS011;46188;52.324;8.032;2023-04-01T18:52:51;7.68;;;5.28;;
60344;SDS011;46188;52.324;8.032;2023-04-01T18:55:28;4.22;;;3.13;;
60344;SDS011;46188;52.324;8.032;2023-04-01T19:03:34;2.78;;;2.40;;
60344;SDS011;46188;52.324;8.032;2023-04-01T19:06:13;2.55;;;2.00;;
60344;SDS011;46188;52.324;8.032;2023-04-01T19:08:46;2.40;;;1.73;;
60344;SDS011;46188;52.324;8.032;2023-04-01T19:19:29;3.40;;;1.80;;
60344;SDS011;46188;52.324;8.032;2023-04-01T19:24:48;2.30;;;2.00;;
60344;SDS011;46188;52.324;8.032;2023-04-01T19:27:26;2.50;;;1.92;;
60344;SDS011;46188;52.324;8.032;2023-04-01T19:33:22;2.92;;;2.28;;
60344;SDS011;46188;52.324;8.032;2023-04-01T19:36:11;2.15;;;1.73;;
60344;SDS011;46188;52.324;8.032;2023-04-01T19:41:56;2.75;;;2.17;;
60344;SDS011;46188;52.324;8.032;2023-04-01T19:49:59;2.38;;;1.83;;
60344;SDS011;46188;52.324;8.032;2023-04-01T19:52:41;2.47;;;2.00;;
60344;SDS011;46188;52.324;8.032;2023-04-01T19:55:29;3.53;;;1.73;;
60344;SDS011;46188;52.324;8.032;2023-04-01T19:58:16;2.35;;;1.60;;
60344;SDS011;46188;52.324;8.032;2023-04-01T20:00:51;2.03;;;1.60;;
60344;SDS011;46188;52.324;8.032;2023-04-01T20:03:30;2.22;;;1.48;;
60344;SDS011;46188;52.324;8.032;2023-04-01T20:06:17;4.45;;;1.40;;
60344;SDS011;46188;52.324;8.032;2023-04-01T20:19:09;1.93;;;1.37;;
60344;SDS011;46188;52.324;8.032;2023-04-01T20:21:40;1.58;;;1.17;;
60344;SDS011;46188;52.324;8.032;2023-04-01T20:24:21;2.00;;;1.50;;
60344;SDS011;46188;52.324;8.032;2023-04-01T20:26:59;1.98;;;1.60;;
60344;SDS011;46188;52.324;8.032;2023-04-01T20:40:44;2.20;;;1.60;;
60344;SDS011;46188;52.324;8.032;2023-04-01T20:43:16;2.97;;;1.83;;
60344;SDS011;46188;52.324;8.032;2023-04-01T20:45:55;3.33;;;1.60;;
60344;SDS011;46188;52.324;8.032;2023-04-01T20:50:53;2.08;;;1.80;;
60344;SDS011;46188;52.324;8.032;2023-04-01T20:53:35;3.75;;;1.70;;
60344;SDS011;46188;52.324;8.032;2023-04-01T20:56:13;4.13;;;1.70;;
60344;SDS011;46188;52.324;8.032;2023-04-01T21:04:17;3.92;;;2.00;;
60344;SDS011;46188;52.324;8.032;2023-04-01T21:09:53;3.17;;;1.63;;
60344;SDS011;46188;52.324;8.032;2023-04-01T21:15:26;4.20;;;2.00;;
60344;SDS011;46188;52.324;8.032;2023-04-01T21:18:10;3.90;;;2.65;;
60344;SDS011;46188;52.324;8.032;2023-04-01T21:20:59;5.53;;;2.90;;
60344;SDS011;46188;52.324;8.032;2023-04-01T21:26:42;4.38;;;2.85;;
60344;SDS011;46188;52.324;8.032;2023-04-01T21:32:18;3.40;;;2.40;;
60344;SDS011;46188;52.324;8.032;2023-04-01T21:37:58;3.20;;;2.35;;
60344;SDS011;46188;52.324;8.032;2023-04-01T21:43:17;3.15;;;2.28;;
60344;SDS011;46188;52.324;8.032;2023-04-01T22:05:25;4.25;;;2.50;;
60344;SDS011;46188;52.324;8.032;2023-04-01T22:08:01;5.43;;;2.90;;
60344;SDS011;46188;52.324;8.032;2023-04-01T22:10:31;3.83;;;3.03;;
60344;SDS011;46188;52.324;8.032;2023-04-01T22:16:16;4.28;;;2.60;;
60344;SDS011;46188;52.324;8.032;2023-04-01T22:19:00;3.83;;;2.75;;
60344;SDS011;46188;52.324;8.032;2023-04-01T22:21:39;4.00;;;3.00;;
60344;SDS011;46188;52.324;8.032;2023-04-01T22:29:46;5.35;;;3.50;;
60344;SDS011;46188;52.324;8.032;2023-04-01T22:32:32;5.65;;;3.28;;
60344;SDS011;46188;52.324;8.032;2023-04-01T22:35:19;4.13;;;3.38;;
60344;SDS011;46188;52.324;8.032;2023-04-01T22:40:47;4.43;;;3.03;;
60344;SDS011;46188;52.324;8.032;2023-04-01T22:43:26;4.78;;;3.70;;
60344;SDS011;46188;52.324;8.032;2023-04-01T22:49:18;5.13;;;3.22;;
60344;SDS011;46188;52.324;8.032;2023-04-01T22:51:50;7.22;;;3.17;;
60344;SDS011;46188;52.324;8.032;2023-04-01T22:54:34;5.05;;;3.65;;
60344;SDS011;46188;52.324;8.032;2023-04-01T23:11:57;5.32;;;3.60;;
60344;SDS011;46188;52.324;8.032;2023-04-01T23:23:05;5.75;;;4.13;;
60344;SDS011;46188;52.324;8.032;2023-04-01T23:25:52;5.95;;;3.97;;
60344;SDS011;46188;52.324;8.032;2023-04-01T23:28:32;5.38;;;4.28;;
60344;SDS011;46188;52.324;8.032;2023-04-01T23:34:17;4.97;;;3.83;;
60344;SDS011;46188;52.324;8.032;2023-04-01T23:36:56;7.20;;;4.93;;
60344;SDS011;46188;52.324;8.032;2023-04-01T23:39:33;5.05;;;3.88;;
60344;SDS011;46188;52.324;8.032;2023-04-01T23:42:12;6.18;;;3.40;;
60344;SDS011;46188;52.324;8.032;2023-04-01T23:44:40;4.85;;;3.40;;
60344;SDS011;46188;52.324;8.032;2023-04-01T23:47:08;5.15;;;3.30;;
60344;SDS011;46188;52.324;8.032;2023-04-01T23:49:45;4.82;;;3.53;;
60344;SDS011;46188;52.324;8.032;2023-04-01T23:52:17;5.03;;;3.30;;
60344;SDS011;46188;52.324;8.032;2023-04-01T23:54:52;4.80;;;3.50;;
60344;SDS011;46188;52.324;8.032;2023-04-01T23:57:30;4.75;;;3.13;;
